Time;durP1;ratioP1;P1;durP2;ratioP2;P2;SDS_P1;SDS_P2;PMS_P1;PMS_P2;Temp;Humidity;BMP_temperature;BMP_pressure;BME280_temperature;BME280_humidity;BME280_pressure;Samples;Min_cycle;Max_cycle;Signal;HPM_P1;HPM_P2
2022/01/10 00:02:03;;;;;;;42.90;19.38;;;;;;;-0.52;100.00;101033.88;4964083;28;20370;-42
2022/01/10 00:04:28;;;;;;;42.60;19.65;;;;;;;-0.54;100.00;101041.00;4964283;28;20486;-42
2022/01/10 00:06:53;;;;;;;50.90;20.70;;;;;;;-0.56;100.00;101040.22;4963740;28;20316;-43
2022/01/10 00:09:18;;;;;;;52.33;20.73;;;;;;;-0.59;100.00;101056.97;4963669;28;20019;-44
2022/01/10 00:11:44;;;;;;;48.00;19.77;;;;;;;-0.62;100.00;101059.75;4944148;28;20053;-43
2022/01/10 00:14:09;;;;;;;48.60;19.17;;;;;;;-0.66;100.00;101067.88;4963469;28;20034;-47
2022/01/10 00:16:34;;;;;;;48.47;21.30;;;;;;;-0.64;100.00;101071.28;4963507;28;20037;-44
2022/01/10 00:18:59;;;;;;;51.15;21.75;;;;;;;-0.67;100.00;101077.53;4964440;28;20039;-45
2022/01/10 00:21:25;;;;;;;42.58;20.33;;;;;;;-0.65;100.00;101080.91;4963528;28;20049;-43
2022/01/10 00:23:50;;;;;;;55.70;20.52;;;;;;;-0.64;100.00;101077.34;4963806;28;20990;-43
2022/01/10 00:26:15;;;;;;;53.45;19.50;;;;;;;-0.64;100.00;101074.72;4961791;28;20050;-46
2022/01/10 00:28:41;;;;;;;49.33;20.77;;;;;;;-0.65;100.00;101082.69;4964676;28;20014;-45
2022/01/10 00:31:07;;;;;;;48.95;19.85;;;;;;;-0.68;100.00;101082.84;4964500;28;20505;-44
2022/01/10 00:33:32;;;;;;;44.88;19.85;;;;;;;-0.71;100.00;101080.38;4963684;28;20023;-43
2022/01/10 00:35:57;;;;;;;55.38;20.20;;;;;;;-0.75;100.00;101082.31;4963747;28;20030;-46
2022/01/10 00:38:22;;;;;;;47.00;19.70;;;;;;;-0.77;100.00;101078.94;4963342;28;20535;-43
2022/01/10 00:40:50;;;;;;;44.30;19.08;;;;;;;-0.79;100.00;101086.06;4975925;28;20097;-43
2022/01/10 00:43:19;;;;;;;49.35;19.45;;;;;;;-0.82;100.00;101084.44;4982093;28;20072;-43
2022/01/10 00:45:44;;;;;;;50.47;19.77;;;;;;;-0.84;100.00;101091.53;4978992;28;20109;-48
2022/01/10 00:48:09;;;;;;;54.33;19.05;;;;;;;-0.83;100.00;101092.38;4976408;28;20034;-43
2022/01/10 00:50:35;;;;;;;45.35;18.75;;;;;;;-0.85;100.00;101086.38;4971540;28;20015;-44
2022/01/10 00:53:01;;;;;;;55.75;20.38;;;;;;;-0.88;100.00;101090.03;4967788;28;20410;-43
2022/01/10 00:55:27;;;;;;;42.85;18.70;;;;;;;-0.88;100.00;101097.00;4961750;28;20128;-43
2022/01/10 00:57:52;;;;;;;49.20;19.92;;;;;;;-1.01;100.00;101081.94;4961995;28;20023;-44
2022/01/10 01:00:18;;;;;;;65.60;22.05;;;;;;;-0.92;100.00;101114.69;4962855;28;20042;-43
2022/01/10 01:02:44;;;;;;;58.47;21.17;;;;;;;-0.90;100.00;101114.59;4961629;28;20116;-43
2022/01/10 01:05:13;;;;;;;50.85;20.67;;;;;;;-0.92;100.00;101122.56;4949547;28;20478;-44
2022/01/10 01:07:39;;;;;;;46.00;19.45;;;;;;;-0.96;100.00;101131.50;4970566;28;20150;-44
2022/01/10 01:12:47;;;;;;;41.10;19.63;;;;;;;-0.99;100.00;101143.00;4980343;28;20038;-47
2022/01/10 01:15:31;;;;;;;45.33;19.85;;;;;;;-1.01;100.00;101146.63;4973567;28;20033;-44
2022/01/10 01:18:32;;;;;;;49.05;19.80;;;;;;;-1.04;100.00;101158.09;4979035;28;20046;-46
2022/01/10 01:20:45;;;;;;;40.60;18.77;;;;;;;-1.05;100.00;101163.44;4979567;28;20068;-43
2022/01/10 01:26:04;;;;;;;48.22;20.17;;;;;;;-1.15;100.00;101160.44;4980626;28;20061;-41
2022/01/10 01:28:30;;;;;;;43.00;19.67;;;;;;;-1.16;100.00;101162.19;4977468;28;20118;-42
2022/01/10 01:30:55;;;;;;;42.75;19.10;;;;;;;-1.16;100.00;101154.34;4961607;28;20509;-46
2022/01/10 01:33:23;;;;;;;55.20;20.83;;;;;;;-1.15;100.00;101161.28;4962076;28;20023;-46
2022/01/10 01:35:50;;;;;;;59.38;21.17;;;;;;;-1.14;100.00;101167.38;4961789;28;20390;-48
2022/01/10 01:38:15;;;;;;;58.97;22.33;;;;;;;-1.06;100.00;101191.44;4961814;28;20031;-43
2022/01/10 01:40:48;;;;;;;62.50;22.85;;;;;;;-1.03;100.00;101183.41;4960566;28;20030;-43
2022/01/10 01:43:13;;;;;;;63.10;22.75;;;;;;;-1.05;100.00;101180.03;4961921;28;20077;-46
2022/01/10 01:45:45;;;;;;;59.53;23.95;;;;;;;-1.04;100.00;101189.56;4961585;28;20121;-44
2022/01/10 01:48:11;;;;;;;;;;;;;;;-1.04;100.00;101199.22;4961848;28;20094;-44
2022/01/10 01:50:36;;;;;;;45.42;20.85;;;;;;;-1.04;100.00;101212.31;4960396;28;20343;-42
2022/01/10 01:53:03;;;;;;;50.45;21.75;;;;;;;-1.05;100.00;101210.63;4961007;28;20023;-46
2022/01/10 01:55:28;;;;;;;55.38;22.42;;;;;;;-1.05;100.00;101221.09;4959246;28;20113;-43
2022/01/10 01:57:54;;;;;;;58.70;24.10;;;;;;;-1.03;100.00;101225.34;4958609;28;20054;-45
2022/01/10 02:00:22;;;;;;;58.28;24.58;;;;;;;-1.01;100.00;101225.28;4959898;28;20034;-43
2022/01/10 02:02:48;;;;;;;62.13;24.50;;;;;;;-1.03;100.00;101219.28;4959965;28;20110;-42
2022/01/10 02:05:13;;;;;;;69.82;24.42;;;;;;;-1.00;100.00;101216.47;4960978;28;20134;-43
2022/01/10 02:07:38;;;;;;;64.40;25.55;;;;;;;-1.01;100.00;101215.63;4961047;28;20444;-43
2022/01/10 02:10:05;;;;;;;57.75;25.38;;;;;;;-1.00;100.00;101226.97;4943007;28;20050;-45
2022/01/10 02:12:31;;;;;;;55.75;24.27;;;;;;;-1.03;100.00;101227.13;4965769;28;20044;-42
2022/01/10 02:14:57;;;;;;;61.20;24.42;;;;;;;-1.03;100.00;101227.97;4975792;28;20026;-42
2022/01/10 02:17:32;;;;;;;60.47;24.55;;;;;;;-1.01;100.00;101238.38;4971526;28;20153;-44
2022/01/10 02:19:59;;;;;;;59.67;23.58;;;;;;;-1.07;100.00;101231.69;4978884;28;20456;-43
2022/01/10 02:22:24;;;;;;;56.10;22.85;;;;;;;-1.01;100.00;101241.84;4979922;28;20037;-43
2022/01/10 02:24:49;;;;;;;67.50;24.08;;;;;;;-0.98;100.00;101252.19;4977872;28;20027;-46
2022/01/10 02:27:15;;;;;;;60.30;23.88;;;;;;;-0.92;100.00;101255.41;4979391;28;20046;-43
2022/01/10 02:29:40;;;;;;;61.45;25.02;;;;;;;-0.88;100.00;101252.59;4979456;28;20026;-44
2022/01/10 02:32:06;;;;;;;56.42;24.65;;;;;;;-0.81;100.00;101261.00;4980697;28;20108;-45
2022/01/10 02:34:31;;;;;;;61.58;25.63;;;;;;;-0.74;100.00;101265.00;4980836;28;20728;-44
2022/01/10 02:36:58;;;;;;;76.57;25.95;;;;;;;-0.68;100.00;101262.06;4979307;28;20161;-43
2022/01/10 02:39:24;;;;;;;65.80;25.45;;;;;;;-0.63;100.00;101277.53;4979064;28;20110;-41
2022/01/10 02:41:49;;;;;;;62.22;26.40;;;;;;;-0.62;100.00;101285.34;4979369;28;20508;-44
2022/01/10 02:44:17;;;;;;;68.18;26.58;;;;;;;-0.61;100.00;101284.44;4979127;28;20142;-44
2022/01/10 02:46:44;;;;;;;65.03;25.77;;;;;;;-0.63;100.00;101293.28;4979675;28;20041;-45
2022/01/10 02:49:11;;;;;;;67.10;26.67;;;;;;;-0.58;100.00;101305.25;4979753;28;20101;-43
2022/01/10 02:51:38;;;;;;;70.07;24.40;;;;;;;-0.54;100.00;101297.22;4979498;28;20037;-43
2022/01/10 02:54:03;;;;;;;51.88;23.65;;;;;;;-0.54;100.00;101297.22;4979941;28;20034;-47
2022/01/10 02:56:28;;;;;;;67.68;26.02;;;;;;;-0.49;100.00;101303.94;4979778;28;20481;-45
2022/01/10 02:58:54;;;;;;;74.32;26.17;;;;;;;-0.45;100.00;101318.59;4979442;28;20102;-47
2022/01/10 03:01:19;;;;;;;60.15;26.83;;;;;;;-0.44;100.00;101315.03;4965435;28;20555;-45
2022/01/10 03:03:44;;;;;;;66.22;27.55;;;;;;;-0.42;100.00;101323.69;4942462;28;20105;-46
2022/01/10 03:06:11;;;;;;;61.08;25.50;;;;;;;-0.40;100.00;101318.34;4960369;28;20109;-44
2022/01/10 03:08:36;;;;;;;64.82;24.65;;;;;;;-0.36;100.00;101322.50;4960308;28;20041;-48
2022/01/10 03:11:02;;;;;;;55.30;23.77;;;;;;;-0.32;100.00;101328.44;4959918;28;20529;-44
2022/01/10 03:13:27;;;;;;;67.72;25.88;;;;;;;-0.30;100.00;101337.13;4960133;28;20031;-45
2022/01/10 03:15:52;;;;;;;61.47;25.30;;;;;;;-0.28;100.00;101336.09;4959387;28;20027;-45
2022/01/10 03:18:18;;;;;;;63.92;24.65;;;;;;;-0.26;100.00;101336.00;4960978;28;20035;-48
2022/01/10 03:20:43;;;;;;;72.93;25.73;;;;;;;-0.24;100.00;101344.66;4959970;28;20026;-45
2022/01/10 03:23:09;;;;;;;63.90;25.50;;;;;;;-0.21;100.00;101344.50;4960475;28;20033;-47
2022/01/10 03:25:34;;;;;;;62.95;26.45;;;;;;;-0.16;100.00;101355.59;4961036;28;20053;-45
2022/01/10 03:28:00;;;;;;;63.42;25.63;;;;;;;-0.13;100.00;101360.72;4963666;28;20081;-44
2022/01/10 03:30:26;;;;;;;61.03;25.55;;;;;;;-0.11;100.00;101348.34;4963954;28;20038;-42
2022/01/10 03:32:52;;;;;;;59.00;25.02;;;;;;;-0.10;100.00;101350.06;4963726;28;20045;-46
2022/01/10 03:35:18;;;;;;;68.40;26.23;;;;;;;-0.08;100.00;101349.97;4963910;28;20442;-45
2022/01/10 03:37:43;;;;;;;59.78;24.70;;;;;;;-0.08;100.00;101352.59;4963604;28;20537;-45
2022/01/10 03:40:09;;;;;;;59.70;24.90;;;;;;;-0.04;100.00;101362.84;4961887;28;20027;-48
2022/01/10 03:42:36;;;;;;;67.15;26.65;;;;;;;-0.03;100.00;101376.84;4962826;28;20052;-47
2022/01/10 03:45:03;;;;;;;62.72;25.38;;;;;;;-0.06;100.00;101380.47;4963904;28;20027;-47
2022/01/10 03:47:28;;;;;;;69.45;25.17;;;;;;;-0.02;100.00;101387.25;4963716;28;20034;-43
2022/01/10 03:49:53;;;;;;;54.75;24.58;;;;;;;-0.02;100.00;101391.66;4963265;28;20114;-47
2022/01/10 03:52:19;;;;;;;59.30;23.90;;;;;;;-0.01;100.00;101391.56;4962922;28;20089;-46
2022/01/10 03:54:44;;;;;;;48.70;23.70;;;;;;;-0.01;100.00;101398.59;4962728;28;20457;-45
2022/01/10 03:57:11;;;;;;;57.17;23.70;;;;;;;-0.01;100.00;101404.69;4962546;28;20093;-44
2022/01/10 03:59:36;;;;;;;59.00;24.45;;;;;;;-0.01;100.00;101404.69;4962975;28;20015;-44
2022/01/10 04:02:03;;;;;;;53.45;23.67;;;;;;;-0.01;100.00;101412.56;4964105;28;20027;-46
2022/01/10 04:04:29;;;;;;;55.70;24.23;;;;;;;0.01;100.00;101417.75;4963470;28;20061;-44
2022/01/10 04:06:54;;;;;;;65.47;25.33;;;;;;;0.00;100.00;101418.69;4962992;28;20066;-46
2022/01/10 04:09:21;;;;;;;68.18;25.92;;;;;;;0.03;100.00;101420.31;4962574;28;20027;-46
2022/01/10 04:11:46;;;;;;;63.42;27.20;;;;;;;0.04;100.00;101416.75;4962648;28;20058;-48
2022/01/10 04:14:11;;;;;;;74.38;25.63;;;;;;;0.06;100.00;101428.88;4962792;28;20099;-45
2022/01/10 04:16:37;;;;;;;62.92;25.63;;;;;;;0.09;100.00;101425.25;4962026;28;20371;-44
2022/01/10 04:19:02;;;;;;;67.63;25.58;;;;;;;0.10;100.00;101424.31;4963348;28;20089;-44
2022/01/10 04:21:28;;;;;;;63.95;25.80;;;;;;;0.10;100.00;101433.06;4963425;28;20041;-46
2022/01/10 04:23:53;;;;;;;66.55;25.38;;;;;;;0.10;100.00;101440.06;4962324;28;20043;-44
2022/01/10 04:26:18;;;;;;;54.08;23.48;;;;;;;0.09;100.00;101457.59;4962742;28;20050;-46
2022/01/10 04:28:44;;;;;;;58.58;23.33;;;;;;;0.05;100.00;101455.22;4961743;28;20038;-44
2022/01/10 04:31:11;;;;;;;55.90;23.73;;;;;;;0.05;100.00;101460.47;4962834;28;20031;-45
2022/01/10 04:33:36;;;;;;;57.17;24.13;;;;;;;0.02;100.00;101452.72;4962759;28;20030;-46
2022/01/10 04:36:02;;;;;;;59.78;24.30;;;;;;;0.03;100.00;101462.31;4962643;28;20073;-45
2022/01/10 04:38:27;;;;;;;52.47;23.00;;;;;;;0.03;100.00;101472.81;4963072;28;20141;-48
2022/01/10 04:40:53;;;;;;;54.30;23.92;;;;;;;0.04;100.00;101477.16;4960677;28;20042;-47
2022/01/10 04:43:18;;;;;;;58.28;23.85;;;;;;;0.05;100.00;101489.34;4962206;28;20030;-44
2022/01/10 04:45:44;;;;;;;58.78;25.10;;;;;;;0.02;100.00;101492.13;4962510;28;20560;-44
2022/01/10 04:48:09;;;;;;;55.80;23.83;;;;;;;0.03;100.00;101497.28;4962536;28;20286;-43
2022/01/10 04:53:19;;;;;;;55.47;25.83;;;;;;;0.02;100.00;101508.75;4962403;28;20257;-44
2022/01/10 04:55:45;;;;;;;54.13;23.15;;;;;;;0.05;100.00;101513.84;4961086;28;20067;-44
2022/01/10 04:58:11;;;;;;;65.68;26.90;;;;;;;0.05;100.00;101512.97;4962078;28;20057;-44
2022/01/10 05:00:36;;;;;;;66.05;25.85;;;;;;;0.05;100.00;101519.09;4962069;28;20030;-47
2022/01/10 05:03:02;;;;;;;68.05;26.80;;;;;;;0.05;100.00;101534.00;4962470;28;20122;-48
2022/01/10 05:05:27;;;;;;;61.00;24.95;;;;;;;0.05;100.00;101524.34;4962891;28;20030;-47
2022/01/10 05:07:52;;;;;;;70.78;28.73;;;;;;;0.05;100.00;101536.63;4962357;28;20625;-47
2022/01/10 05:10:18;;;;;;;62.92;25.42;;;;;;;0.06;100.00;101546.22;4961539;28;20102;-49
2022/01/10 05:12:43;;;;;;;64.03;25.45;;;;;;;0.06;100.00;101540.94;4961738;28;20029;-45
2022/01/10 05:15:09;;;;;;;62.70;25.77;;;;;;;0.07;100.00;101546.13;4961848;28;20111;-47
2022/01/10 05:17:34;;;;;;;67.50;25.88;;;;;;;0.07;100.00;101559.25;4961998;28;20059;-45
2022/01/10 05:20:00;;;;;;;67.72;26.75;;;;;;;0.09;100.00;101551.31;4963179;28;20124;-47
2022/01/10 05:22:25;;;;;;;62.90;26.17;;;;;;;0.07;100.00;101556.63;4962105;28;20414;-46
2022/01/10 05:24:50;;;;;;;63.38;25.98;;;;;;;0.10;100.00;101566.13;4960733;28;20027;-44
2022/01/10 05:27:15;;;;;;;63.97;25.65;;;;;;;0.11;100.00;101571.31;4961650;28;20053;-46
2022/01/10 05:29:41;;;;;;;65.57;28.42;;;;;;;0.11;100.00;101562.59;4961377;28;20054;-46
2022/01/10 05:32:07;;;;;;;65.03;26.85;;;;;;;0.12;100.00;101564.28;4961877;28;20085;-45
2022/01/10 05:34:32;;;;;;;65.65;26.15;;;;;;;0.15;100.00;101572.00;4962740;28;20042;-45
2022/01/10 05:36:57;;;;;;;61.05;24.08;;;;;;;0.16;100.00;101587.69;4961850;28;20105;-45
2022/01/10 05:39:23;;;;;;;60.80;24.60;;;;;;;0.19;100.00;101591.97;4960857;28;20031;-45
2022/01/10 05:41:48;;;;;;;65.43;24.92;;;;;;;0.22;100.00;101601.44;4960445;28;20337;-45
2022/01/10 05:44:13;;;;;;;60.03;24.10;;;;;;;0.26;100.00;101609.09;4961429;28;20037;-43
2022/01/10 05:46:41;;;;;;;55.47;22.02;;;;;;;0.28;100.00;101612.50;4961582;28;20023;-44
2022/01/10 05:49:07;;;;;;;62.55;22.80;;;;;;;0.29;100.00;101613.34;4961855;28;20034;-46
2022/01/10 05:51:34;;;;;;;56.20;23.52;;;;;;;0.33;100.00;101625.41;4961433;28;20386;-43
2022/01/10 05:54:01;;;;;;;51.47;21.73;;;;;;;0.35;100.00;101626.19;4960793;28;20027;-43
2022/01/10 05:56:26;;;;;;;46.80;22.05;;;;;;;0.28;100.00;101615.13;4961161;28;20090;-45
2022/01/10 05:58:51;;;;;;;55.90;23.25;;;;;;;0.38;100.00;101627.84;4960516;28;20389;-44
2022/01/10 06:01:17;;;;;;;52.35;22.75;;;;;;;0.37;100.00;101624.31;4961117;28;20122;-46
2022/01/10 06:03:42;;;;;;;52.88;23.35;;;;;;;0.39;100.00;101624.25;4961352;28;20163;-44
2022/01/10 06:06:07;;;;;;;59.60;23.35;;;;;;;0.39;100.00;101629.50;4960868;28;20430;-44
2022/01/10 06:08:33;;;;;;;57.42;24.58;;;;;;;0.39;100.00;101640.03;4960566;28;20401;-42
2022/01/10 06:10:58;;;;;;;64.65;23.80;;;;;;;0.37;100.00;101650.59;4961221;28;20031;-43
2022/01/10 06:13:24;;;;;;;61.97;24.40;;;;;;;0.37;100.00;101650.59;4943456;28;20029;-44
2022/01/10 06:15:51;;;;;;;64.55;23.92;;;;;;;0.37;100.00;101637.47;4960971;28;20069;-47
2022/01/10 06:18:16;;;;;;;61.55;25.63;;;;;;;0.36;100.00;101648.94;4960447;28;20027;-42
2022/01/10 06:20:42;;;;;;;64.03;26.20;;;;;;;0.34;100.00;101659.50;4960974;28;20034;-47
2022/01/10 06:23:09;;;;;;;63.58;25.08;;;;;;;0.34;100.00;101666.50;4961040;28;20489;-44
2022/01/10 06:25:35;;;;;;;63.88;25.67;;;;;;;0.35;100.00;101671.69;4959379;28;20063;-46
2022/01/10 06:28:00;;;;;;;65.07;24.55;;;;;;;0.35;100.00;101676.94;4961636;28;20023;-45
2022/01/10 06:30:26;;;;;;;57.08;24.10;;;;;;;0.38;100.00;101685.63;4960398;28;20050;-45
2022/01/10 06:32:51;;;;;;;61.00;23.92;;;;;;;0.40;100.00;101692.50;4960933;28;20362;-49
2022/01/10 06:35:16;;;;;;;65.63;25.27;;;;;;;0.40;100.00;101691.66;4961241;28;20022;-45
2022/01/10 06:37:42;;;;;;;62.83;25.10;;;;;;;0.39;100.00;101703.97;4960601;28;20060;-45
2022/01/10 06:40:08;;;;;;;64.15;24.00;;;;;;;0.42;100.00;101718.72;4959487;28;20035;-43
2022/01/10 06:42:34;;;;;;;65.65;24.27;;;;;;;0.44;100.00;101715.09;4959620;28;20088;-45
2022/01/10 06:44:59;;;;;;;58.13;25.08;;;;;;;0.44;100.00;101711.59;4961401;28;20470;-46
2022/01/10 06:47:24;;;;;;;59.22;23.98;;;;;;;0.45;100.00;101714.16;4960885;28;20042;-43
2022/01/10 06:49:50;;;;;;;66.32;27.40;;;;;;;0.44;100.00;101716.84;4961321;28;20015;-45
2022/01/10 06:52:15;;;;;;;63.63;25.23;;;;;;;0.41;100.00;101712.63;4960434;28;20512;-44
2022/01/10 06:54:41;;;;;;;65.22;26.15;;;;;;;0.41;100.00;101724.88;4959023;28;20042;-48
2022/01/10 06:57:06;;;;;;;65.20;25.55;;;;;;;0.39;100.00;101729.38;4960224;28;20549;-45
2022/01/10 06:59:32;;;;;;;62.33;24.50;;;;;;;0.41;100.00;101732.75;4961503;28;20039;-43
2022/01/10 07:01:58;;;;;;;55.70;24.23;;;;;;;0.42;100.00;101739.72;4964845;28;20042;-43
2022/01/10 07:04:24;;;;;;;53.08;24.52;;;;;;;0.42;100.00;101748.47;4964423;28;20019;-43
2022/01/10 07:06:49;;;;;;;62.35;24.98;;;;;;;0.41;100.00;101752.03;4964064;28;20037;-49
2022/01/10 07:09:15;;;;;;;67.25;26.20;;;;;;;0.39;100.00;101767.03;4963440;28;20029;-45
2022/01/10 07:11:40;;;;;;;74.15;27.70;;;;;;;0.38;100.00;101761.84;4963550;28;20041;-46
2022/01/10 07:14:05;;;;;;;65.57;28.17;;;;;;;0.34;100.00;101761.97;4946546;28;20019;-47
2022/01/10 07:16:31;;;;;;;73.35;28.83;;;;;;;0.30;100.00;101763.03;4964120;28;20374;-44
2022/01/10 07:18:57;;;;;;;77.70;29.35;;;;;;;0.27;100.00;101775.47;4962922;28;20045;-44
2022/01/10 07:21:22;;;;;;;62.38;26.83;;;;;;;0.24;100.00;101788.72;4963506;28;20042;-45
2022/01/10 07:23:48;;;;;;;63.55;26.10;;;;;;;0.21;100.00;101797.63;4962681;28;20039;-48
2022/01/10 07:26:14;;;;;;;65.63;26.70;;;;;;;0.22;100.00;101803.72;4963404;28;20378;-46
2022/01/10 07:28:39;;;;;;;69.90;26.98;;;;;;;0.22;100.00;101801.09;4963526;28;20410;-45
2022/01/10 07:31:05;;;;;;;64.50;25.98;;;;;;;0.22;100.00;101808.97;4963359;28;20026;-43
2022/01/10 07:33:30;;;;;;;68.88;25.65;;;;;;;0.19;100.00;101812.63;4964207;28;20027;-44
2022/01/10 07:35:56;;;;;;;67.30;29.00;;;;;;;0.18;100.00;101817.00;4963685;28;20091;-44
2022/01/10 07:38:21;;;;;;;75.72;27.17;;;;;;;0.15;100.00;101814.53;4962742;28;20023;-44
2022/01/10 07:40:47;;;;;;;64.00;27.75;;;;;;;0.15;100.00;101824.16;4963164;28;20351;-48
2022/01/10 07:43:12;;;;;;;64.32;25.63;;;;;;;0.12;100.00;101830.44;4963256;28;20110;-44
2022/01/10 07:45:37;;;;;;;58.55;25.55;;;;;;;0.11;100.00;101836.59;4962901;28;20027;-43
2022/01/10 07:48:04;;;;;;;65.28;26.40;;;;;;;0.11;100.00;101841.00;4963982;28;20027;-45
2022/01/10 07:50:29;;;;;;;67.15;27.35;;;;;;;0.07;100.00;101845.53;4963746;28;20096;-44
2022/01/10 07:52:54;;;;;;;71.30;29.75;;;;;;;0.07;100.00;101857.78;4962943;28;20023;-44
2022/01/10 07:55:20;;;;;;;67.43;28.90;;;;;;;0.04;100.00;101860.59;4962290;28;20058;-43
2022/01/10 07:57:46;;;;;;;69.63;28.02;;;;;;;0.03;100.00;101864.13;4961895;28;20286;-45
2022/01/10 08:00:11;;;;;;;66.07;27.75;;;;;;;0.02;100.00;101873.78;4963142;28;20027;-43
2022/01/10 08:02:37;;;;;;;67.82;29.17;;;;;;;0.01;100.00;101877.31;4963620;28;20100;-44
2022/01/10 08:05:02;;;;;;;64.97;27.70;;;;;;;0.03;100.00;101882.50;4964004;28;20519;-44
2022/01/10 08:07:27;;;;;;;66.07;29.38;;;;;;;0.01;100.00;101887.81;4971669;28;20034;-44
2022/01/10 08:09:53;;;;;;;79.07;30.25;;;;;;;-0.01;100.00;101894.91;4980516;28;20275;-46
2022/01/10 08:12:18;;;;;;;76.20;28.08;;;;;;;-0.03;100.00;101899.38;4982408;28;20319;-47
2022/01/10 08:14:44;;;;;;;70.93;29.67;;;;;;;-0.04;100.00;101903.75;4982889;28;20040;-44
2022/01/10 08:17:09;;;;;;;60.47;27.63;;;;;;;-0.04;100.00;101910.81;4982532;28;20554;-45
2022/01/10 08:19:34;;;;;;;77.13;29.17;;;;;;;-0.05;100.00;101916.97;4981967;28;20053;-43
2022/01/10 08:22:01;;;;;;;84.53;33.47;;;;;;;-0.03;100.00;101913.38;4982655;28;20049;-47
2022/01/10 08:24:27;;;;;;;79.35;30.88;;;;;;;-0.01;100.00;101916.78;4982145;28;20088;-46
2022/01/10 08:26:53;;;;;;;76.95;31.83;;;;;;;0.02;100.00;101921.06;4981574;28;20053;-46
2022/01/10 08:29:19;;;;;;;74.07;30.90;;;;;;;0.04;100.00;101928.88;4982336;28;20022;-44
2022/01/10 08:31:45;;;;;;;70.75;31.35;;;;;;;0.06;100.00;101934.91;4982236;28;20152;-44
2022/01/10 08:34:11;;;;;;;76.63;33.17;;;;;;;0.09;100.00;101934.78;4982237;28;20558;-45
2022/01/10 08:36:36;;;;;;;72.68;31.08;;;;;;;0.13;100.00;101944.22;4981772;28;20556;-45
2022/01/10 08:39:04;;;;;;;85.53;31.92;;;;;;;0.20;100.00;101947.44;4982069;28;20110;-47
2022/01/10 08:41:30;;;;;;;81.05;32.95;;;;;;;0.23;100.00;101955.19;4981791;28;20038;-45
2022/01/10 08:43:55;;;;;;;72.60;31.38;;;;;;;0.31;100.00;101971.47;4981587;28;20030;-46
2022/01/10 08:46:21;;;;;;;68.75;30.85;;;;;;;0.38;100.00;101977.31;4981078;28;20127;-45
2022/01/10 08:48:46;;;;;;;74.05;31.20;;;;;;;0.42;100.00;101984.97;4961830;28;20031;-45
2022/01/10 08:51:12;;;;;;;64.05;30.35;;;;;;;0.49;100.00;101981.19;4978857;28;20034;-46
2022/01/10 08:53:37;;;;;;;75.75;31.35;;;;;;;0.55;100.00;101987.94;4974878;28;20101;-45
2022/01/10 08:56:03;;;;;;;79.43;32.70;;;;;;;0.60;100.00;101991.22;4967931;28;20034;-47
2022/01/10 08:58:32;;;;;;;72.28;30.75;;;;;;;0.67;100.00;102003.16;4972425;28;20026;-47
2022/01/10 09:01:03;;;;;;;63.78;29.95;;;;;;;0.71;100.00;102004.75;4972618;28;20030;-48
2022/01/10 09:03:29;;;;;;;70.18;29.13;;;;;;;0.76;100.00;102007.13;4975611;28;20023;-43
2022/01/10 09:05:55;;;;;;;67.13;29.05;;;;;;;0.78;100.00;102009.69;4981341;28;20041;-44
2022/01/10 09:08:23;;;;;;;66.22;30.98;;;;;;;0.79;100.00;102008.78;4980588;28;20086;-43
2022/01/10 09:10:49;;;;;;;74.63;31.15;;;;;;;0.82;100.00;102013.91;4980833;28;20541;-45
2022/01/10 09:13:14;;;;;;;76.72;31.27;;;;;;;0.85;100.00;102022.53;4980612;28;20138;-45
2022/01/10 09:15:39;;;;;;;76.03;29.55;;;;;;;0.87;100.00;102028.56;4963371;28;20049;-44
2022/01/10 09:18:05;;;;;;;61.95;28.40;;;;;;;0.93;100.00;102025.66;4964135;28;20196;-44
2022/01/10 09:20:30;;;;;;;66.35;29.52;;;;;;;0.99;100.00;102034.19;4981785;28;20056;-47
2022/01/10 09:22:56;;;;;;;66.30;29.60;;;;;;;1.05;100.00;102036.53;4962467;28;20105;-47
2022/01/10 09:25:22;;;;;;;72.82;29.15;;;;;;;1.05;100.00;102037.41;4980479;28;20057;-45
2022/01/10 09:27:47;;;;;;;68.20;29.42;;;;;;;1.12;100.00;102037.94;4980054;28;20141;-42
2022/01/10 09:30:12;;;;;;;63.95;30.10;;;;;;;1.09;100.00;102036.31;4963344;28;20032;-44
2022/01/10 09:32:39;;;;;;;72.10;30.95;;;;;;;1.09;100.00;102044.22;4980609;28;20026;-47
2022/01/10 09:35:05;;;;;;;71.00;30.85;;;;;;;1.10;100.00;102045.94;4972100;28;20100;-43
2022/01/10 09:37:30;;;;;;;71.57;31.10;;;;;;;1.14;100.00;102041.38;4974676;28;20030;-47
2022/01/10 09:39:55;;;;;;;59.63;28.30;;;;;;;1.19;100.00;102047.28;4961311;28;20038;-45
2022/01/10 09:42:22;;;;;;;72.68;29.23;;;;;;;1.17;100.00;102050.91;4968473;28;20038;-45
2022/01/10 09:44:47;;;;;;;64.75;27.35;;;;;;;1.25;100.00;102051.41;4961193;28;20488;-44
2022/01/10 09:47:13;;;;;;;62.45;27.33;;;;;;;1.32;100.00;102057.25;4961578;28;20027;-45
2022/01/10 09:49:38;;;;;;;65.60;26.40;;;;;;;1.42;100.00;102064.63;4943564;28;20075;-44
2022/01/10 09:52:04;;;;;;;60.72;25.67;;;;;;;1.44;100.00;102067.19;4960789;28;20129;-46
2022/01/10 09:54:29;;;;;;;61.75;25.23;;;;;;;1.48;100.00;102072.25;4961312;28;20026;-47
2022/01/10 09:56:55;;;;;;;58.75;25.85;;;;;;;1.54;100.00;102080.78;4960527;28;20053;-45
2022/01/10 09:59:20;;;;;;;62.55;25.45;;;;;;;1.60;100.00;102091.03;4976797;28;20042;-42
2022/01/10 10:01:49;;;;;;;56.38;23.90;;;;;;;1.68;100.00;102095.00;4980210;28;20062;-47
2022/01/10 10:04:15;;;;;;;63.00;24.35;;;;;;;1.80;100.00;102098.84;4980285;28;20125;-43
2022/01/10 10:06:40;;;;;;;57.90;23.83;;;;;;;1.88;100.00;102110.78;4980315;28;20053;-47
2022/01/10 10:09:08;;;;;;;57.70;24.70;;;;;;;1.93;100.00;102111.41;4980347;28;20397;-44
2022/01/10 10:11:45;;;;;;;53.67;23.45;;;;;;;1.98;100.00;102112.91;4980507;28;20503;-42
2022/01/10 10:14:13;;;;;;;53.35;24.40;;;;;;;2.01;100.00;102118.03;4973602;28;20031;-42
2022/01/10 10:16:46;;;;;;;52.22;22.15;;;;;;;2.06;100.00;102123.09;4962515;28;20043;-44
2022/01/10 10:19:11;;;;;;;63.90;24.60;;;;;;;2.15;100.00;102132.31;4960981;28;20034;-47
2022/01/10 10:21:37;;;;;;;54.13;23.55;;;;;;;2.21;100.00;102132.88;4965993;28;20069;-45
2022/01/10 10:24:04;;;;;;;54.58;21.85;;;;;;;2.27;100.00;102136.97;4971005;28;20244;-44
2022/01/10 10:26:30;;;;;;;59.67;24.80;;;;;;;2.29;100.00;102143.06;4969858;28;20051;-45
2022/01/10 10:28:56;;;;;;;54.28;22.92;;;;;;;2.33;100.00;102141.13;4959962;28;20394;-45
2022/01/10 10:31:25;;;;;;;56.53;23.88;;;;;;;2.37;100.00;102151.41;4960582;28;20097;-45
2022/01/10 10:33:52;;;;;;;50.88;23.58;;;;;;;2.41;100.00;102153.00;4960164;28;20034;-46
2022/01/10 10:36:17;;;;;;;54.08;22.55;;;;;;;2.47;100.00;102154.47;4960012;28;20545;-44
2022/01/10 10:38:43;;;;;;;52.03;23.15;;;;;;;2.53;100.00;102159.44;4941357;28;20110;-44
2022/01/10 10:41:09;;;;;;;60.08;22.75;;;;;;;2.59;100.00;102156.47;4962580;28;20022;-44
2022/01/10 10:43:37;;;;;;;50.28;22.23;;;;;;;2.61;100.00;102165.19;4959553;28;20077;-46
2022/01/10 10:46:04;;;;;;;50.85;23.55;;;;;;;2.59;100.00;102169.66;4960809;28;20105;-43
2022/01/10 10:48:34;;;;;;;52.15;22.73;;;;;;;2.68;100.00;102167.50;4961083;28;20019;-47
2022/01/10 10:51:01;;;;;;;54.38;24.00;;;;;;;2.75;100.00;102164.50;4961071;28;20501;-45
2022/01/10 10:53:28;;;;;;;45.83;22.02;;;;;;;2.83;100.00;102158.81;4959834;28;20498;-47
2022/01/10 10:55:57;;;;;;;45.58;21.83;;;;;;;2.91;100.00;102168.97;4960301;28;20030;-44
2022/01/10 10:58:22;;;;;;;46.60;21.70;;;;;;;2.96;100.00;102175.72;4960576;28;20030;-46
2022/01/10 11:00:48;;;;;;;49.38;22.70;;;;;;;3.06;100.00;102180.53;4964190;28;20504;-46
2022/01/10 11:03:16;;;;;;;56.50;21.52;;;;;;;3.07;100.00;102196.31;4979372;28;20034;-48
2022/01/10 11:05:44;;;;;;;42.45;19.30;;;;;;;3.14;100.00;102202.97;4977454;28;20136;-45
2022/01/10 11:08:09;;;;;;;42.22;20.48;;;;;;;3.27;100.00;102192.59;4969687;28;20140;-48
2022/01/10 11:10:37;;;;;;;52.13;23.00;;;;;;;3.29;100.00;102201.31;4968666;28;20042;-44